Time;durP1;ratioP1;P1;durP2;ratioP2;P2;SDS_P1;SDS_P2;PMS_P1;PMS_P2;Temp;Humidity;BMP_temperature;BMP_pressure;BME280_temperature;BME280_humidity;BME280_pressure;Samples;Min_cycle;Max_cycle;Signal;HPM_P1;HPM_P2
2022/12/25 00:01:23;;;;;;;;;;;16.40;95.70;;;;;;5056397;28;19962;-89
2022/12/25 00:03:49;;;;;;;;;;;16.40;95.70;;;;;;5088474;28;19912;-89
2022/12/25 00:06:15;;;;;;;;;;;16.30;95.70;;;;;;5088801;28;19920;-89
2022/12/25 00:08:41;;;;;;;;;;;16.30;95.60;;;;;;5088981;28;19908;-89
2022/12/25 00:11:08;;;;;;;;;;;16.30;95.60;;;;;;5089156;28;20280;-89
2022/12/25 00:13:33;;;;;;;;;;;16.30;95.60;;;;;;5088521;28;20202;-89
2022/12/25 00:15:59;;;;;;;;;;;16.30;95.60;;;;;;5054866;28;19916;-89
2022/12/25 00:18:24;;;;;;;;;;;16.30;95.60;;;;;;5055991;28;19919;-89
2022/12/25 00:21:01;;;;;;;;;;;16.30;95.60;;;;;;5074374;28;19915;-89
2022/12/25 00:23:27;;;;;;;;;;;16.30;95.60;;;;;;5089549;28;19978;-89
2022/12/25 00:25:52;;;;;;;;;;;16.30;95.60;;;;;;5089052;28;20462;-89
2022/12/25 00:28:19;;;;;;;;;;;16.30;95.60;;;;;;5089258;28;19951;-89
2022/12/25 00:30:45;;;;;;;;;;;16.30;95.60;;;;;;5073998;28;19909;-89
2022/12/25 00:33:10;;;;;;;;;;;16.30;95.60;;;;;;5089646;28;19917;-89
2022/12/25 00:35:36;;;;;;;;;;;16.30;95.70;;;;;;5055121;28;19938;-89
2022/12/25 00:38:02;;;;;;;;;;;16.30;95.70;;;;;;5055174;28;20029;-89
2022/12/25 00:40:27;;;;;;;;;;;16.30;95.70;;;;;;5055105;28;19970;-89
2022/12/25 00:42:53;;;;;;;;;;;16.20;95.60;;;;;;5053662;28;19912;-89
2022/12/25 00:45:18;;;;;;;;;;;16.20;95.60;;;;;;5054127;28;19915;-89
2022/12/25 00:47:44;;;;;;;;;;;16.30;95.70;;;;;;5053336;28;20169;-89
2022/12/25 00:50:10;;;;;;;;;;;16.20;95.60;;;;;;5052968;28;19919;-89
2022/12/25 00:52:35;;;;;;;;;;;16.20;95.70;;;;;;5053140;28;19908;-88
2022/12/25 00:55:01;;;;;;;;;;;16.20;95.70;;;;;;5053087;28;20271;-88
2022/12/25 00:57:27;;;;;;;;;;;16.20;95.70;;;;;;5088067;28;19958;-88
2022/12/25 00:59:53;;;;;;;;;;;16.20;95.70;;;;;;5055006;28;20174;-88
2022/12/25 01:02:24;;;;;;;;;;;16.20;95.70;;;;;;5054952;28;20003;-89
2022/12/25 01:04:54;;;;;;;;;;;16.20;95.70;;;;;;5055564;28;19988;-88
2022/12/25 01:07:20;;;;;;;;;;;16.20;95.70;;;;;;5089013;28;19962;-88
2022/12/25 01:12:31;;;;;;;;;;;16.10;95.70;;;;;;5075908;28;19919;-88
2022/12/25 01:14:57;;;;;;;;;;;16.10;95.60;;;;;;5092275;28;19908;-88
2022/12/25 01:17:23;;;;;;;;;;;16.10;95.60;;;;;;5057791;28;19909;-89
2022/12/25 01:19:48;;;;;;;;;;;16.10;95.70;;;;;;5058159;28;19908;-89
2022/12/25 01:22:15;;;;;;;;;;;16.10;95.70;;;;;;5055454;28;19935;-88
2022/12/25 01:24:42;;;;;;;;;;;16.10;95.70;;;;;;5054871;28;19913;-89
2022/12/25 01:27:08;;;;;;;;;;;16.10;95.70;;;;;;5087330;28;19908;-89
2022/12/25 01:29:33;;;;;;;;;;;16.10;95.70;;;;;;5088878;28;20331;-89
2022/12/25 01:31:59;;;;;;;;;;;16.10;95.70;;;;;;5055072;28;19908;-89
2022/12/25 01:34:25;;;;;;;;;;;16.10;95.60;;;;;;5056746;28;19916;-88
2022/12/25 01:36:50;;;;;;;;;;;16.10;95.70;;;;;;5055469;28;19909;-89
2022/12/25 01:39:16;;;;;;;;;;;16.10;95.60;;;;;;5055394;28;19994;-88
2022/12/25 01:41:41;;;;;;;;;;;16.10;95.60;;;;;;5073792;28;19908;-89
2022/12/25 01:44:27;;;;;;;;;;;16.10;95.60;;;;;;5056023;28;19913;-89
2022/12/25 01:46:53;;;;;;;;;;;16.10;95.60;;;;;;5024990;28;20282;-89
2022/12/25 01:49:23;;;;;;;;;;;16.10;95.60;;;;;;5055156;28;19959;-89
2022/12/25 01:51:49;;;;;;;;;;;16.10;95.60;;;;;;5087726;28;20185;-88
2022/12/25 01:54:21;;;;;;;;;;;16.00;95.50;;;;;;5053564;28;19915;-89
2022/12/25 01:56:47;;;;;;;;;;;16.00;95.50;;;;;;5087673;28;19995;-89
2022/12/25 01:59:14;;;;;;;;;;;16.00;95.50;;;;;;5088217;28;19915;-89
2022/12/25 02:01:40;;;;;;;;;;;16.00;95.50;;;;;;5072851;28;20007;-89
2022/12/25 02:04:12;;;;;;;;;;;16.00;95.50;;;;;;5054104;28;20023;-89
2022/12/25 02:06:38;;;;;;;;;;;16.00;95.50;;;;;;5087998;28;20078;-89
2022/12/25 02:09:03;;;;;;;;;;;16.00;95.80;;;;;;5089649;28;19908;-89
2022/12/25 02:14:13;;;;;;;;;;;16.00;95.60;;;;;;5072946;28;19993;-89
2022/12/25 02:16:40;;;;;;;;;;;16.00;95.50;;;;;;5054827;28;19951;-88
2022/12/25 02:19:15;;;;;;;;;;;16.00;95.50;;;;;;5087744;28;20174;-88
2022/12/25 02:21:43;;;;;;;;;;;16.00;95.50;;;;;;5054128;28;19908;-88
2022/12/25 02:24:25;;;;;;;;;;;15.90;95.50;;;;;;5053782;28;19923;-88
2022/12/25 02:27:00;;;;;;;;;;;15.90;95.50;;;;;;5089179;28;19909;-90
2022/12/25 02:29:28;;;;;;;;;;;16.00;95.50;;;;;;5089602;28;19913;-89
2022/12/25 02:31:54;;;;;;;;;;;15.90;95.50;;;;;;5053111;28;20054;-88
2022/12/25 02:34:23;;;;;;;;;;;15.90;95.50;;;;;;5053920;28;19972;-89
2022/12/25 02:36:58;;;;;;;;;;;16.00;95.50;;;;;;5087850;28;19912;-89
2022/12/25 02:42:20;;;;;;;;;;;15.90;95.50;;;;;;5071062;28;20375;-88
2022/12/25 03:07:01;;;;;;;;;;;15.90;95.50;;;;;;5074069;28;20071;-88
2022/12/25 03:12:32;;;;;;;;;;;15.90;95.50;;;;;;5016442;28;19909;-88
2022/12/25 03:17:43;;;;;;;;;;;15.90;95.40;;;;;;5079185;28;19916;-88
2022/12/25 03:28:21;;;;;;;;;;;15.90;95.40;;;;;;5077730;28;20115;-88
2022/12/25 03:31:10;;;;;;;;;;;15.80;95.40;;;;;;5059722;28;20168;-88
2022/12/25 03:33:36;;;;;;;;;;;15.80;95.40;;;;;;5077111;28;20098;-88
2022/12/25 03:36:07;;;;;;;;;;;15.80;95.40;;;;;;5060041;28;20010;-88
2022/12/25 03:47:44;;;;;;;;;;;15.80;95.40;;;;;;5076104;28;19931;-88
2022/12/25 04:36:44;;;;;;;;;;;18.80;80.00;;;;;;5072458;28;21208;-89
2022/12/25 04:39:10;;;;;;;;;;;18.80;80.20;;;;;;5056670;28;19939;-89
2022/12/25 04:41:36;;;;;;;;;;;18.70;80.60;;;;;;5089309;28;19915;-89
2022/12/25 04:44:01;;;;;;;;;;;18.60;80.90;;;;;;5055303;28;19924;-88
2022/12/25 04:46:27;;;;;;;;;;;18.50;81.40;;;;;;5055232;28;19917;-88
2022/12/25 04:48:53;;;;;;;;;;;18.40;82.10;;;;;;5057492;28;19909;-89
2022/12/25 04:51:20;;;;;;;;;;;18.30;82.70;;;;;;5091887;28;19909;-89
2022/12/25 04:53:46;;;;;;;;;;;18.20;83.40;;;;;;5091445;28;20316;-89
2022/12/25 04:56:12;;;;;;;;;;;18.10;84.20;;;;;;5091143;28;19917;-88
2022/12/25 04:58:38;;;;;;;;;;;18.00;84.90;;;;;;5089992;28;19908;-88
2022/12/25 05:01:04;;;;;;;;;;;17.90;85.50;;;;;;5074099;28;19973;-88
2022/12/25 05:03:30;;;;;;;;;;;17.90;86.20;;;;;;5089221;28;20028;-89
2022/12/25 05:05:56;;;;;;;;;;;17.80;86.70;;;;;;5089552;28;20015;-88
2022/12/25 05:08:21;;;;;;;;;;;17.70;87.30;;;;;;5056459;28;19908;-89
2022/12/25 05:10:47;;;;;;;;;;;17.60;87.80;;;;;;5073272;28;19915;-88
2022/12/25 05:13:13;;;;;;;;;;;17.50;88.40;;;;;;5057086;28;19962;-88
2022/12/25 05:15:39;;;;;;;;;;;17.50;89.20;;;;;;5058876;28;19909;-88
2022/12/25 05:18:05;;;;;;;;;;;17.30;89.80;;;;;;5092526;28;20310;-88
2022/12/25 05:20:31;;;;;;;;;;;17.30;90.20;;;;;;5091304;28;20145;-88
2022/12/25 05:22:56;;;;;;;;;;;17.20;90.40;;;;;;5057804;28;20029;-89
2022/12/25 05:25:22;;;;;;;;;;;17.10;90.60;;;;;;5058719;28;19919;-88
2022/12/25 05:27:47;;;;;;;;;;;17.10;90.90;;;;;;5076615;28;19908;-88
2022/12/25 05:30:13;;;;;;;;;;;17.00;91.10;;;;;;5059226;28;19985;-88
2022/12/25 05:32:39;;;;;;;;;;;16.90;91.30;;;;;;5056605;28;20713;-88
2022/12/25 05:35:07;;;;;;;;;;;16.90;91.50;;;;;;5058280;28;19920;-88
2022/12/25 05:37:32;;;;;;;;;;;16.80;91.70;;;;;;5091696;28;19912;-88
2022/12/25 05:39:58;;;;;;;;;;;16.80;91.90;;;;;;5059601;28;19908;-88
2022/12/25 05:42:23;;;;;;;;;;;16.70;92.10;;;;;;5059149;28;19908;-88
2022/12/25 05:44:49;;;;;;;;;;;16.60;92.30;;;;;;5058588;28;19916;-88
2022/12/25 05:47:14;;;;;;;;;;;16.60;92.50;;;;;;5058333;28;19909;-88
2022/12/25 05:49:41;;;;;;;;;;;16.50;92.60;;;;;;5056960;28;19908;-88
2022/12/25 05:52:06;;;;;;;;;;;16.50;92.80;;;;;;5090729;28;19912;-88
2022/12/25 05:54:33;;;;;;;;;;;16.40;92.90;;;;;;5057158;28;19935;-88
2022/12/25 05:56:58;;;;;;;;;;;16.40;93.00;;;;;;5089932;28;19909;-88
2022/12/25 05:59:24;;;;;;;;;;;16.40;93.10;;;;;;5056507;28;20147;-89
2022/12/25 06:01:49;;;;;;;;;;;16.40;93.00;;;;;;5056188;28;19908;-88
2022/12/25 06:04:15;;;;;;;;;;;16.50;93.00;;;;;;5056924;28;19912;-88
2022/12/25 06:06:40;;;;;;;;;;;16.60;92.80;;;;;;5064214;28;19947;-88
2022/12/25 06:09:06;;;;;;;;;;;16.60;92.50;;;;;;5075198;28;19956;-88
2022/12/25 06:11:32;;;;;;;;;;;16.80;92.10;;;;;;5056416;28;19931;-88
2022/12/25 06:13:57;;;;;;;;;;;17.00;91.60;;;;;;5056986;28;20244;-88
2022/12/25 06:16:23;;;;;;;;;;;17.10;90.90;;;;;;5056949;28;20271;-88
2022/12/25 06:18:50;;;;;;;;;;;17.30;90.50;;;;;;5057304;28;19994;-88
2022/12/25 06:21:17;;;;;;;;;;;17.50;89.90;;;;;;5090890;28;19935;-88
2022/12/25 06:23:43;;;;;;;;;;;17.50;88.90;;;;;;5057444;28;19912;-88
2022/12/25 06:26:09;;;;;;;;;;;17.60;87.90;;;;;;5089883;28;19909;-88
2022/12/25 06:28:35;;;;;;;;;;;17.70;87.60;;;;;;5090551;28;19976;-88
2022/12/25 06:31:05;;;;;;;;;;;17.60;87.40;;;;;;5090828;28;19920;-88
2022/12/25 06:33:31;;;;;;;;;;;17.60;87.30;;;;;;5090774;28;20003;-88
2022/12/25 06:35:56;;;;;;;;;;;17.60;87.10;;;;;;5056671;28;19995;-88
2022/12/25 06:38:22;;;;;;;;;;;17.60;87.00;;;;;;5057501;28;19909;-88
2022/12/25 06:40:47;;;;;;;;;;;17.60;86.90;;;;;;5057449;28;20277;-88
2022/12/25 06:43:13;;;;;;;;;;;17.60;87.10;;;;;;5057972;28;20152;-88
2022/12/25 06:45:38;;;;;;;;;;;17.60;87.20;;;;;;5060592;28;20159;-88
2022/12/25 06:48:04;;;;;;;;;;;17.50;87.30;;;;;;5061368;28;20262;-88
2022/12/25 06:50:30;;;;;;;;;;;17.50;87.60;;;;;;5060611;28;19923;-88
2022/12/25 06:52:56;;;;;;;;;;;17.40;88.10;;;;;;5060992;28;20332;-88
2022/12/25 06:55:21;;;;;;;;;;;17.30;88.50;;;;;;5094573;28;19919;-88
2022/12/25 06:57:47;;;;;;;;;;;17.30;89.00;;;;;;5060880;28;20178;-88
2022/12/25 07:00:13;;;;;;;;;;;17.20;89.50;;;;;;5060275;28;20003;-88
2022/12/25 07:02:40;;;;;;;;;;;17.10;90.00;;;;;;5094756;28;19908;-88
2022/12/25 07:05:05;;;;;;;;;;;17.00;90.20;;;;;;5077778;28;19948;-88
2022/12/25 07:07:31;;;;;;;;;;;17.00;90.50;;;;;;5058922;28;20021;-88
2022/12/25 07:09:57;;;;;;;;;;;16.90;90.70;;;;;;5059462;28;20248;-88
2022/12/25 07:12:23;;;;;;;;;;;16.80;91.00;;;;;;5059373;28;20229;-88
2022/12/25 07:14:48;;;;;;;;;;;16.80;91.00;;;;;;5092467;28;20236;-89
2022/12/25 07:17:18;;;;;;;;;;;16.80;91.20;;;;;;5093352;28;19947;-88
2022/12/25 07:19:47;;;;;;;;;;;16.70;91.40;;;;;;5093132;28;19939;-89
2022/12/25 07:22:13;;;;;;;;;;;16.60;91.50;;;;;;5093892;28;19974;-88
2022/12/25 07:24:39;;;;;;;;;;;16.60;91.60;;;;;;5092591;28;19981;-88
2022/12/25 07:27:05;;;;;;;;;;;16.60;91.70;;;;;;5057992;28;19916;-88
2022/12/25 07:29:31;;;;;;;;;;;16.60;91.80;;;;;;5090947;28;19916;-88
2022/12/25 07:31:57;;;;;;;;;;;16.60;91.90;;;;;;5058379;28;19916;-88
2022/12/25 07:34:22;;;;;;;;;;;16.60;91.90;;;;;;5091690;28;19917;-88
2022/12/25 07:36:48;;;;;;;;;;;16.60;92.00;;;;;;5074908;28;19909;-88
2022/12/25 07:39:15;;;;;;;;;;;16.60;92.00;;;;;;5091388;28;19915;-88
2022/12/25 07:41:40;;;;;;;;;;;16.60;91.90;;;;;;5058374;28;19916;-88
2022/12/25 07:44:06;;;;;;;;;;;16.60;91.80;;;;;;5092243;28;20182;-88
2022/12/25 07:46:32;;;;;;;;;;;16.70;91.70;;;;;;5059072;28;19970;-88
2022/12/25 07:48:57;;;;;;;;;;;16.70;91.60;;;;;;5058697;28;19928;-88
2022/12/25 07:51:23;;;;;;;;;;;16.70;91.50;;;;;;5057322;28;19916;-88
2022/12/25 07:53:48;;;;;;;;;;;16.80;91.40;;;;;;5057628;28;19908;-88
2022/12/25 07:56:15;;;;;;;;;;;16.80;91.30;;;;;;5055626;28;19915;-88
2022/12/25 07:58:41;;;;;;;;;;;16.90;91.10;;;;;;5090302;28;19915;-88
2022/12/25 08:01:09;;;;;;;;;;;16.90;91.00;;;;;;5057009;28;19909;-88
2022/12/25 08:03:34;;;;;;;;;;;16.90;90.80;;;;;;5091507;28;20293;-88
2022/12/25 08:06:07;;;;;;;;;;;17.00;90.60;;;;;;5058439;28;19909;-88
2022/12/25 08:08:34;;;;;;;;;;;17.00;90.50;;;;;;5075274;28;19908;-88
2022/12/25 08:10:59;;;;;;;;;;;17.10;90.40;;;;;;5058165;28;19948;-88
2022/12/25 08:13:25;;;;;;;;;;;17.10;90.30;;;;;;5091795;28;19959;-88
2022/12/25 08:15:55;;;;;;;;;;;17.10;90.10;;;;;;5057887;28;19920;-88
2022/12/25 08:18:21;;;;;;;;;;;17.20;90.00;;;;;;5057927;28;19989;-88
2022/12/25 08:20:47;;;;;;;;;;;17.20;89.90;;;;;;5058521;28;19908;-88
2022/12/25 08:23:12;;;;;;;;;;;17.20;89.90;;;;;;5058135;28;19993;-88
2022/12/25 08:25:38;;;;;;;;;;;17.20;89.60;;;;;;5057964;28;19970;-88
2022/12/25 08:28:04;;;;;;;;;;;17.20;89.50;;;;;;5056928;28;19920;-88
2022/12/25 08:30:29;;;;;;;;;;;17.20;89.30;;;;;;5058063;28;19912;-90
2022/12/25 08:32:55;;;;;;;;;;;17.20;89.30;;;;;;5057610;28;19917;-90
2022/12/25 08:35:20;;;;;;;;;;;17.20;89.20;;;;;;5075333;28;19948;-90
2022/12/25 08:37:46;;;;;;;;;;;17.20;89.20;;;;;;5073652;28;19908;-90
2022/12/25 08:40:12;;;;;;;;;;;17.30;89.10;;;;;;5059005;28;19908;-90
2022/12/25 08:42:37;;;;;;;;;;;17.20;89.20;;;;;;5057041;28;19992;-89
2022/12/25 08:45:03;;;;;;;;;;;17.20;89.40;;;;;;5058089;28;20250;-91
2022/12/25 08:47:30;;;;;;;;;;;17.20;89.20;;;;;;5075262;28;19970;-90
2022/12/25 08:49:55;;;;;;;;;;;17.20;89.60;;;;;;5056325;28;19955;-90
2022/12/25 08:52:21;;;;;;;;;;;17.10;89.70;;;;;;5056133;28;19974;-90
2022/12/25 08:54:46;;;;;;;;;;;17.10;89.80;;;;;;5055286;28;19951;-90
2022/12/25 08:57:12;;;;;;;;;;;17.10;89.80;;;;;;5055278;28;19920;-90
2022/12/25 08:59:38;;;;;;;;;;;17.10;90.00;;;;;;5055954;28;20262;-91
2022/12/25 09:02:03;;;;;;;;;;;17.00;90.10;;;;;;5056301;28;20372;-90
2022/12/25 09:04:29;;;;;;;;;;;17.00;90.30;;;;;;5057075;28;19912;-91
2022/12/25 09:06:55;;;;;;;;;;;16.90;90.40;;;;;;5055337;28;19912;-90
2022/12/25 09:09:24;;;;;;;;;;;16.90;90.60;;;;;;5071441;28;19956;-90
2022/12/25 09:11:50;;;;;;;;;;;16.80;90.80;;;;;;5089045;28;20393;-90
2022/12/25 09:14:15;;;;;;;;;;;16.70;91.00;;;;;;5075868;28;20327;-90
2022/12/25 09:16:42;;;;;;;;;;;16.70;91.20;;;;;;5073802;28;19916;-91
2022/12/25 09:19:08;;;;;;;;;;;16.60;91.40;;;;;;5053434;28;20301;-90
2022/12/25 09:21:35;;;;;;;;;;;16.60;91.50;;;;;;5053559;28;19908;-90
2022/12/25 09:24:01;;;;;;;;;;;16.60;91.60;;;;;;5054977;28;19916;-91
2022/12/25 09:26:27;;;;;;;;;;;16.50;91.80;;;;;;5091382;28;20009;-90
2022/12/25 09:28:53;;;;;;;;;;;16.50;91.80;;;;;;5054706;28;19992;-91
2022/12/25 09:31:19;;;;;;;;;;;16.50;91.80;;;;;;5056213;28;19908;-91
2022/12/25 09:33:45;;;;;;;;;;;16.50;91.90;;;;;;5093306;28;20210;-91
2022/12/25 09:36:11;;;;;;;;;;;16.60;91.90;;;;;;5058656;28;19922;-92
2022/12/25 09:38:36;;;;;;;;;;;16.60;91.70;;;;;;5055776;28;20305;-92
2022/12/25 09:41:05;;;;;;;;;;;16.70;91.50;;;;;;5053451;28;19936;-89
2022/12/25 09:43:36;;;;;;;;;;;16.90;91.20;;;;;;5087958;28;19920;-89
2022/12/25 09:46:03;;;;;;;;;;;17.00;90.80;;;;;;5088263;28;19909;-89
2022/12/25 09:48:37;;;;;;;;;;;17.10;90.50;;;;;;5086690;28;19951;-89
2022/12/25 09:51:07;;;;;;;;;;;17.20;90.10;;;;;;5089320;28;20001;-89
2022/12/25 09:53:37;;;;;;;;;;;17.30;89.60;;;;;;5086691;28;20311;-89
2022/12/25 09:56:08;;;;;;;;;;;17.40;88.40;;;;;;5054522;28;19908;-89
2022/12/25 09:58:33;;;;;;;;;;;17.60;87.30;;;;;;5087398;28;20312;-89
2022/12/25 10:01:03;;;;;;;;;;;17.70;86.70;;;;;;5053526;28;19959;-89
2022/12/25 10:03:29;;;;;;;;;;;17.80;86.80;;;;;;5087122;28;19925;-90
2022/12/25 10:05:58;;;;;;;;;;;17.80;86.80;;;;;;5054480;28;19990;-90
2022/12/25 10:08:42;;;;;;;;;;;17.80;87.10;;;;;;5054191;28;19909;-91
2022/12/25 10:11:29;;;;;;;;;;;17.80;87.20;;;;;;5090648;28;20285;-91
2022/12/25 10:14:14;;;;;;;;;;;17.80;88.10;;;;;;5088675;28;19913;-91
2022/12/25 10:16:47;;;;;;;;;;;17.70;89.10;;;;;;5043467;28;19912;-91
2022/12/25 10:19:32;;;;;;;;;;;17.60;89.90;;;;;;5088231;28;20191;-90
2022/12/25 10:22:00;;;;;;;;;;;17.50;90.30;;;;;;5093974;28;19909;-91
2022/12/25 10:24:28;;;;;;;;;;;17.40;90.80;;;;;;5093890;28;20018;-91
2022/12/25 10:26:55;;;;;;;;;;;17.30;91.40;;;;;;5057816;28;19992;-90
2022/12/25 10:29:20;;;;;;;;;;;17.30;91.70;;;;;;5089847;28;19908;-91
2022/12/25 10:31:47;;;;;;;;;;;17.20;92.10;;;;;;5058466;28;19920;-91
2022/12/25 10:34:13;;;;;;;;;;;17.10;92.40;;;;;;5074926;28;19916;-90
2022/12/25 10:36:40;;;;;;;;;;;17.10;92.70;;;;;;5059187;28;19908;-91
2022/12/25 10:39:06;;;;;;;;;;;17.00;93.00;;;;;;5058341;28;19908;-91
2022/12/25 10:41:55;;;;;;;;;;;16.90;93.30;;;;;;5057883;28;19908;-91
2022/12/25 10:44:23;;;;;;;;;;;16.90;93.50;;;;;;5057621;28;19912;-91
2022/12/25 10:46:49;;;;;;;;;;;16.90;93.80;;;;;;5057122;28;19915;-91
2022/12/25 10:49:15;;;;;;;;;;;16.80;94.00;;;;;;5057329;28;19999;-91
2022/12/25 10:51:41;;;;;;;;;;;16.80;94.10;;;;;;5057667;28;19995;-91
2022/12/25 10:54:19;;;;;;;;;;;16.80;94.40;;;;;;5057859;28;19919;-92
2022/12/25 10:57:00;;;;;;;;;;;16.70;94.50;;;;;;5057498;28;19987;-92
2022/12/25 10:59:27;;;;;;;;;;;16.70;94.70;;;;;;5057536;28;20011;-91
2022/12/25 11:01:53;;;;;;;;;;;16.70;94.80;;;;;;5058046;28;19908;-91
2022/12/25 11:04:20;;;;;;;;;;;16.60;95.00;;;;;;5056265;28;19959;-91
2022/12/25 11:06:55;;;;;;;;;;;16.60;95.10;;;;;;5057821;28;20076;-91
2022/12/25 11:09:20;;;;;;;;;;;16.60;95.10;;;;;;5057687;28;19917;-91
2022/12/25 11:11:46;;;;;;;;;;;16.60;95.20;;;;;;5055555;28;19990;-91
2022/12/25 11:14:16;;;;;;;;;;;16.60;95.40;;;;;;5057100;28;20119;-91
2022/12/25 11:16:41;;;;;;;;;;;16.60;95.40;;;;;;5057836;28;19916;-91
2022/12/25 11:19:24;;;;;;;;;;;16.60;95.50;;;;;;5055697;28;19927;-92
2022/12/25 11:21:51;;;;;;;;;;;16.60;95.60;;;;;;5059400;28;19938;-91
2022/12/25 11:24:18;;;;;;;;;;;16.60;95.60;;;;;;5058880;28;20198;-92
2022/12/25 11:26:48;;;;;;;;;;;16.60;95.70;;;;;;5060103;28;19944;-92
2022/12/25 11:29:23;;;;;;;;;;;16.70;95.80;;;;;;5059865;28;20471;-91
2022/12/25 11:31:49;;;;;;;;;;;16.70;95.90;;;;;;5060153;28;19908;-92
2022/12/25 11:34:34;;;;;;;;;;;16.70;95.80;;;;;;5060000;28;19927;-92
2022/12/25 11:37:01;;;;;;;;;;;16.70;95.80;;;;;;5059612;28;19915;-92
2022/12/25 11:39:31;;;;;;;;;;;16.80;95.80;;;;;;5056899;28;19908;-92
2022/12/25 11:41:57;;;;;;;;;;;16.80;95.80;;;;;;5057536;28;20001;-92
2022/12/25 11:44:34;;;;;;;;;;;16.80;95.70;;;;;;5056173;28;19970;-92
2022/12/25 11:47:02;;;;;;;;;;;16.80;95.70;;;;;;5056886;28;19942;-92
2022/12/25 11:49:28;;;;;;;;;;;16.80;96.00;;;;;;5055842;28;19909;-92
2022/12/25 11:51:54;;;;;;;;;;;16.90;96.10;;;;;;5055897;28;19916;-91
2022/12/25 11:54:30;;;;;;;;;;;16.90;96.50;;;;;;5056326;28;19909;-92
2022/12/25 11:56:57;;;;;;;;;;;16.90;96.70;;;;;;5056356;28;19908;-92
2022/12/25 11:59:26;;;;;;;;;;;16.90;96.60;;;;;;5056354;28;20330;-92
2022/12/25 12:02:10;;;;;;;;;;;16.90;96.60;;;;;;5058578;28;20281;-92
2022/12/25 12:04:40;;;;;;;;;;;16.90;96.50;;;;;;5059898;28;20280;-92
2022/12/25 12:07:12;;;;;;;;;;;16.90;96.50;;;;;;5059515;28;19909;-92
2022/12/25 12:09:47;;;;;;;;;;;16.90;96.50;;;;;;5057370;28;20007;-92
2022/12/25 12:12:28;;;;;;;;;;;16.90;96.50;;;;;;5057129;28;19908;-92
2022/12/25 12:15:11;;;;;;;;;;;16.90;96.50;;;;;;5056690;28;19908;-92
2022/12/25 12:17:37;;;;;;;;;;;16.80;96.50;;;;;;5056637;28;19948;-92
2022/12/25 12:20:13;;;;;;;;;;;16.80;96.60;;;;;;5056247;28;19954;-92
2022/12/25 12:22:46;;;;;;;;;;;16.80;96.60;;;;;;5057159;28;19909;-92
2022/12/25 12:25:16;;;;;;;;;;;16.80;96.60;;;;;;5057637;28;20361;-92
2022/12/25 12:27:42;;;;;;;;;;;16.80;96.60;;;;;;5057426;28;20284;-92
2022/12/25 12:30:27;;;;;;;;;;;16.70;96.60;;;;;;5057538;28;19940;-92
2022/12/25 12:32:54;;;;;;;;;;;16.70;96.70;;;;;;5058020;28;19920;-92
2022/12/25 12:35:25;;;;;;;;;;;16.70;96.80;;;;;;5058868;28;19916;-92
2022/12/25 12:38:05;;;;;;;;;;;16.70;96.90;;;;;;5060314;28;19997;-92
2022/12/25 12:40:35;;;;;;;;;;;16.60;96.90;;;;;;5064323;28;20124;-93
2022/12/25 12:43:00;;;;;;;;;;;16.60;96.90;;;;;;5064991;28;19924;-93
2022/12/25 12:45:34;;;;;;;;;;;16.60;97.10;;;;;;5062928;28;19908;-92
2022/12/25 12:48:00;;;;;;;;;;;16.60;97.10;;;;;;5062895;28;19995;-93
2022/12/25 12:50:31;;;;;;;;;;;16.50;97.10;;;;;;5080491;28;19936;-93
2022/12/25 12:52:57;;;;;;;;;;;16.50;97.20;;;;;;5062202;28;20165;-92
2022/12/25 12:55:27;;;;;;;;;;;16.50;97.30;;;;;;5060560;28;19909;-92
2022/12/25 12:57:57;;;;;;;;;;;16.40;97.30;;;;;;5057930;28;19916;-92
2022/12/25 13:00:25;;;;;;;;;;;16.40;97.30;;;;;;5058076;28;19908;-92
2022/12/25 13:03:06;;;;;;;;;;;16.40;97.30;;;;;;5059688;28;19912;-93
2022/12/25 13:05:40;;;;;;;;;;;16.40;97.50;;;;;;5057675;28;19909;-92
2022/12/25 13:08:25;;;;;;;;;;;16.40;97.60;;;;;;5059211;28;20200;-92
2022/12/25 13:10:52;;;;;;;;;;;16.30;97.70;;;;;;5063301;28;19934;-93
2022/12/25 13:13:23;;;;;;;;;;;16.30;97.90;;;;;;5062823;28;19908;-92
2022/12/25 13:15:49;;;;;;;;;;;16.30;98.10;;;;;;5059949;28;20068;-92
2022/12/25 13:18:15;;;;;;;;;;;16.30;98.30;;;;;;5060364;28;20235;-92
2022/12/25 13:20:53;;;;;;;;;;;16.30;98.40;;;;;;5060936;28;19934;-92
2022/12/25 13:23:24;;;;;;;;;;;16.30;98.40;;;;;;5060552;28;20003;-92
2022/12/25 13:25:53;;;;;;;;;;;16.30;98.50;;;;;;5060874;28;19908;-92
2022/12/25 13:28:23;;;;;;;;;;;16.20;98.60;;;;;;5061203;28;20165;-92
2022/12/25 13:30:48;;;;;;;;;;;16.30;98.70;;;;;;5058421;28;19909;-92
2022/12/25 13:33:16;;;;;;;;;;;16.30;98.80;;;;;;5055977;28;19920;-92
2022/12/25 13:35:42;;;;;;;;;;;16.40;98.60;;;;;;5058091;28;19912;-91
2022/12/25 13:38:15;;;;;;;;;;;16.60;98.30;;;;;;5056646;28;19912;-92
2022/12/25 13:42:04;;;;;;;;;;;16.80;97.90;;;;;;5056904;28;19908;-92
2022/12/25 13:43:32;;;;;;;;;;;17.00;97.30;;;;;;5077234;28;20199;-92
2022/12/25 13:45:58;;;;;;;;;;;17.40;96.40;;;;;;5057317;28;19916;-92
2022/12/25 13:48:24;;;;;;;;;;;17.60;95.60;;;;;;5057196;28;19935;-93
2022/12/25 13:50:57;;;;;;;;;;;17.90;94.80;;;;;;5058859;28;19908;-92
2022/12/25 13:53:22;;;;;;;;;;;18.10;94.20;;;;;;5058131;28;19908;-91
2022/12/25 13:55:53;;;;;;;;;;;18.20;93.80;;;;;;5058233;28;19909;-91
2022/12/25 13:58:29;;;;;;;;;;;18.20;93.80;;;;;;5056984;28;19908;-92
2022/12/25 14:00:59;;;;;;;;;;;18.20;93.60;;;;;;5057980;28;19909;-92
2022/12/25 14:03:28;;;;;;;;;;;18.10;93.70;;;;;;5057900;28;20268;-92
2022/12/25 14:05:57;;;;;;;;;;;18.10;93.80;;;;;;5057749;28;19909;-92
2022/12/25 14:08:25;;;;;;;;;;;18.00;93.80;;;;;;5057107;28;19939;-91
2022/12/25 14:10:51;;;;;;;;;;;17.90;94.00;;;;;;5055748;28;19908;-92
2022/12/25 14:13:18;;;;;;;;;;;17.80;94.20;;;;;;5055201;28;19908;-92
2022/12/25 14:15:46;;;;;;;;;;;17.80;94.40;;;;;;5052545;28;20055;-91
2022/12/25 14:18:19;;;;;;;;;;;17.70;94.60;;;;;;5052058;28;19912;-91
2022/12/25 14:20:58;;;;;;;;;;;17.60;94.80;;;;;;5051969;28;19950;-91
2022/12/25 14:23:24;;;;;;;;;;;17.50;95.00;;;;;;5053696;28;19924;-91
2022/12/25 14:25:50;;;;;;;;;;;17.40;95.40;;;;;;5054488;28;19913;-91
2022/12/25 14:28:16;;;;;;;;;;;17.30;95.30;;;;;;5056610;28;20365;-90
2022/12/25 14:30:42;;;;;;;;;;;17.30;95.60;;;;;;5056422;28;20015;-91
2022/12/25 14:33:09;;;;;;;;;;;17.20;95.70;;;;;;5056479;28;19916;-93
2022/12/25 14:35:34;;;;;;;;;;;17.20;95.90;;;;;;5056287;28;19970;-91
2022/12/25 14:38:00;;;;;;;;;;;17.10;96.00;;;;;;5056714;28;20311;-92
2022/12/25 14:40:29;;;;;;;;;;;17.10;96.20;;;;;;5057484;28;19965;-91
2022/12/25 14:43:02;;;;;;;;;;;17.00;96.30;;;;;;5055848;28;19908;-91
2022/12/25 14:45:29;;;;;;;;;;;17.00;96.40;;;;;;5054539;28;19908;-91
2022/12/25 14:47:57;;;;;;;;;;;16.90;96.50;;;;;;5054349;28;19909;-91
2022/12/25 14:50:24;;;;;;;;;;;16.90;96.70;;;;;;5053555;28;19990;-91
2022/12/25 14:52:50;;;;;;;;;;;16.80;96.80;;;;;;5052550;28;19909;-91
2022/12/25 14:55:20;;;;;;;;;;;16.80;96.90;;;;;;5054511;28;19935;-91
2022/12/25 14:57:52;;;;;;;;;;;16.80;97.00;;;;;;5054668;28;19913;-91
2022/12/25 15:00:17;;;;;;;;;;;16.70;97.00;;;;;;5052459;28;19924;-91
2022/12/25 15:02:44;;;;;;;;;;;16.70;97.20;;;;;;5052746;28;19909;-90
2022/12/25 15:05:24;;;;;;;;;;;16.70;97.50;;;;;;5052708;28;19920;-91
2022/12/25 15:08:09;;;;;;;;;;;16.60;97.30;;;;;;5056747;28;19991;-91
2022/12/25 15:10:35;;;;;;;;;;;16.60;97.40;;;;;;5057118;28;19919;-91
2022/12/25 15:13:01;;;;;;;;;;;16.60;97.50;;;;;;5057517;28;19948;-91
2022/12/25 15:15:28;;;;;;;;;;;16.60;97.50;;;;;;5057525;28;19908;-92
2022/12/25 15:17:54;;;;;;;;;;;16.50;97.60;;;;;;5073940;28;19916;-91
2022/12/25 15:20:21;;;;;;;;;;;16.50;97.60;;;;;;5057694;28;19916;-91
2022/12/25 15:22:47;;;;;;;;;;;16.50;97.60;;;;;;5056904;28;20125;-91
2022/12/25 15:25:13;;;;;;;;;;;16.50;97.60;;;;;;5057294;28;19912;-91
2022/12/25 15:27:40;;;;;;;;;;;16.50;97.60;;;;;;5057062;28;20185;-91
2022/12/25 15:30:06;;;;;;;;;;;16.50;97.60;;;;;;5056299;28;19971;-91
2022/12/25 15:32:32;;;;;;;;;;;16.60;97.60;;;;;;5054811;28;20058;-91
2022/12/25 15:34:57;;;;;;;;;;;16.60;97.50;;;;;;5055604;28;20188;-91
2022/12/25 15:37:23;;;;;;;;;;;16.70;97.30;;;;;;5057046;28;19909;-91
2022/12/25 15:39:49;;;;;;;;;;;16.80;97.20;;;;;;5056432;28;19915;-91
2022/12/25 15:42:16;;;;;;;;;;;16.90;96.90;;;;;;5057964;28;19909;-91
2022/12/25 15:44:42;;;;;;;;;;;16.90;96.60;;;;;;5057793;28;19916;-92
2022/12/25 15:47:09;;;;;;;;;;;17.10;96.30;;;;;;5057621;28;19908;-91
2022/12/25 15:49:35;;;;;;;;;;;17.20;96.00;;;;;;5058272;28;20196;-90
2022/12/25 15:52:02;;;;;;;;;;;17.20;95.80;;;;;;5058069;28;19980;-91
2022/12/25 15:54:28;;;;;;;;;;;17.30;95.60;;;;;;5056605;28;19908;-91
2022/12/25 15:56:55;;;;;;;;;;;17.30;95.40;;;;;;5057268;28;20198;-91
2022/12/25 15:59:21;;;;;;;;;;;17.40;95.60;;;;;;5059520;28;19908;-90
2022/12/25 16:01:48;;;;;;;;;;;17.30;95.20;;;;;;5057942;28;20250;-91